sensor_id;sensor_type;location;lat;lon;timestamp;P1;durP1;ratioP1;P2;durP2;ratioP2
4106;SDS011;21906;50.812;7.132;2023-03-31T00:01:34;1.40;;;1.30;;
4106;SDS011;21906;50.812;7.132;2023-03-31T00:04:00;4.47;;;1.60;;
4106;SDS011;21906;50.812;7.132;2023-03-31T00:06:28;2.03;;;1.17;;
4106;SDS011;21906;50.812;7.132;2023-03-31T00:08:55;4.50;;;1.40;;
4106;SDS011;21906;50.812;7.132;2023-03-31T00:11:26;3.83;;;1.20;;
4106;SDS011;21906;50.812;7.132;2023-03-31T00:13:52;1.70;;;1.27;;
4106;SDS011;21906;50.812;7.132;2023-03-31T00:16:17;1.90;;;1.20;;
4106;SDS011;21906;50.812;7.132;2023-03-31T00:18:43;2.50;;;1.20;;
4106;SDS011;21906;50.812;7.132;2023-03-31T00:21:14;1.40;;;1.20;;
4106;SDS011;21906;50.812;7.132;2023-03-31T00:24:04;3.13;;;1.40;;
4106;SDS011;21906;50.812;7.132;2023-03-31T00:26:32;2.23;;;1.33;;
4106;SDS011;21906;50.812;7.132;2023-03-31T00:28:59;2.07;;;1.10;;
4106;SDS011;21906;50.812;7.132;2023-03-31T00:31:25;1.47;;;0.90;;
4106;SDS011;21906;50.812;7.132;2023-03-31T00:33:51;2.70;;;1.27;;
4106;SDS011;21906;50.812;7.132;2023-03-31T00:36:18;2.17;;;1.27;;
4106;SDS011;21906;50.812;7.132;2023-03-31T00:38:51;2.90;;;1.30;;
4106;SDS011;21906;50.812;7.132;2023-03-31T00:41:23;2.37;;;1.50;;
4106;SDS011;21906;50.812;7.132;2023-03-31T00:47:22;2.13;;;1.47;;
4106;SDS011;21906;50.812;7.132;2023-03-31T00:49:33;1.57;;;1.13;;
4106;SDS011;21906;50.812;7.132;2023-03-31T00:52:10;2.07;;;1.20;;
4106;SDS011;21906;50.812;7.132;2023-03-31T00:54:44;1.63;;;1.30;;
4106;SDS011;21906;50.812;7.132;2023-03-31T00:57:13;2.47;;;1.20;;
4106;SDS011;21906;50.812;7.132;2023-03-31T00:59:41;2.10;;;1.07;;
4106;SDS011;21906;50.812;7.132;2023-03-31T01:02:11;1.40;;;1.00;;
4106;SDS011;21906;50.812;7.132;2023-03-31T01:04:39;4.20;;;1.17;;
4106;SDS011;21906;50.812;7.132;2023-03-31T01:07:21;2.07;;;0.93;;
4106;SDS011;21906;50.812;7.132;2023-03-31T01:09:50;1.83;;;1.50;;
4106;SDS011;21906;50.812;7.132;2023-03-31T01:12:19;1.57;;;1.00;;
4106;SDS011;21906;50.812;7.132;2023-03-31T01:14:47;3.53;;;1.33;;
4106;SDS011;21906;50.812;7.132;2023-03-31T01:17:17;6.80;;;1.43;;
4106;SDS011;21906;50.812;7.132;2023-03-31T01:28:28;2.20;;;1.27;;
4106;SDS011;21906;50.812;7.132;2023-03-31T01:34:46;3.60;;;1.40;;
4106;SDS011;21906;50.812;7.132;2023-03-31T01:40:23;2.20;;;1.23;;
4106;SDS011;21906;50.812;7.132;2023-03-31T01:48:16;2.80;;;1.10;;
4106;SDS011;21906;50.812;7.132;2023-03-31T01:50:57;4.03;;;1.30;;
4106;SDS011;21906;50.812;7.132;2023-03-31T01:53:32;2.90;;;1.23;;
4106;SDS011;21906;50.812;7.132;2023-03-31T01:56:13;1.63;;;1.10;;
4106;SDS011;21906;50.812;7.132;2023-03-31T01:59:04;5.47;;;1.73;;
4106;SDS011;21906;50.812;7.132;2023-03-31T02:01:38;2.00;;;1.30;;
4106;SDS011;21906;50.812;7.132;2023-03-31T02:04:21;4.50;;;1.90;;
4106;SDS011;21906;50.812;7.132;2023-03-31T02:06:51;3.93;;;1.70;;
4106;SDS011;21906;50.812;7.132;2023-03-31T02:09:25;4.10;;;1.60;;
4106;SDS011;21906;50.812;7.132;2023-03-31T02:11:55;3.43;;;1.70;;
4106;SDS011;21906;50.812;7.132;2023-03-31T02:14:23;5.23;;;2.00;;
4106;SDS011;21906;50.812;7.132;2023-03-31T02:16:53;3.93;;;1.73;;
4106;SDS011;21906;50.812;7.132;2023-03-31T02:19:27;2.50;;;1.67;;
4106;SDS011;21906;50.812;7.132;2023-03-31T02:21:56;3.03;;;1.70;;
4106;SDS011;21906;50.812;7.132;2023-03-31T02:24:24;2.60;;;1.40;;
4106;SDS011;21906;50.812;7.132;2023-03-31T02:27:06;3.77;;;1.93;;
4106;SDS011;21906;50.812;7.132;2023-03-31T02:29:35;5.57;;;1.80;;
4106;SDS011;21906;50.812;7.132;2023-03-31T02:32:12;5.17;;;1.90;;
4106;SDS011;21906;50.812;7.132;2023-03-31T02:34:45;5.37;;;1.80;;
4106;SDS011;21906;50.812;7.132;2023-03-31T02:37:11;3.77;;;2.03;;
4106;SDS011;21906;50.812;7.132;2023-03-31T02:39:39;4.60;;;1.60;;
4106;SDS011;21906;50.812;7.132;2023-03-31T02:42:07;2.97;;;1.73;;
4106;SDS011;21906;50.812;7.132;2023-03-31T02:44:34;5.27;;;2.23;;
4106;SDS011;21906;50.812;7.132;2023-03-31T02:47:01;4.20;;;2.00;;
4106;SDS011;21906;50.812;7.132;2023-03-31T02:49:30;2.60;;;1.70;;
4106;SDS011;21906;50.812;7.132;2023-03-31T03:00:10;3.53;;;1.50;;
4106;SDS011;21906;50.812;7.132;2023-03-31T03:06:03;6.20;;;2.10;;
4106;SDS011;21906;50.812;7.132;2023-03-31T03:14:22;3.97;;;1.80;;
4106;SDS011;21906;50.812;7.132;2023-03-31T03:16:56;7.40;;;1.70;;
4106;SDS011;21906;50.812;7.132;2023-03-31T03:19:26;3.40;;;1.87;;
4106;SDS011;21906;50.812;7.132;2023-03-31T03:21:52;4.33;;;2.10;;
4106;SDS011;21906;50.812;7.132;2023-03-31T03:24:18;3.90;;;1.70;;
4106;SDS011;21906;50.812;7.132;2023-03-31T03:26:44;2.60;;;1.80;;
4106;SDS011;21906;50.812;7.132;2023-03-31T03:29:11;4.20;;;2.00;;
4106;SDS011;21906;50.812;7.132;2023-03-31T03:31:40;5.83;;;2.30;;
4106;SDS011;21906;50.812;7.132;2023-03-31T03:34:06;4.83;;;2.00;;
4106;SDS011;21906;50.812;7.132;2023-03-31T03:36:33;5.70;;;1.80;;
4106;SDS011;21906;50.812;7.132;2023-03-31T03:39:00;3.20;;;1.50;;
4106;SDS011;21906;50.812;7.132;2023-03-31T03:41:26;4.90;;;1.90;;
4106;SDS011;21906;50.812;7.132;2023-03-31T03:43:51;3.30;;;1.97;;
4106;SDS011;21906;50.812;7.132;2023-03-31T03:46:17;4.33;;;1.73;;
4106;SDS011;21906;50.812;7.132;2023-03-31T03:48:42;4.23;;;1.77;;
4106;SDS011;21906;50.812;7.132;2023-03-31T03:51:08;3.50;;;1.80;;
4106;SDS011;21906;50.812;7.132;2023-03-31T03:53:33;5.20;;;1.73;;
4106;SDS011;21906;50.812;7.132;2023-03-31T03:55:59;3.00;;;1.77;;
4106;SDS011;21906;50.812;7.132;2023-03-31T03:58:25;2.53;;;1.70;;
4106;SDS011;21906;50.812;7.132;2023-03-31T04:00:51;3.27;;;1.40;;
4106;SDS011;21906;50.812;7.132;2023-03-31T04:03:16;2.30;;;1.90;;
4106;SDS011;21906;50.812;7.132;2023-03-31T04:05:42;2.67;;;1.40;;
4106;SDS011;21906;50.812;7.132;2023-03-31T04:08:08;2.90;;;1.60;;
4106;SDS011;21906;50.812;7.132;2023-03-31T04:10:34;3.60;;;1.40;;
4106;SDS011;21906;50.812;7.132;2023-03-31T04:13:00;1.97;;;1.50;;
4106;SDS011;21906;50.812;7.132;2023-03-31T04:15:26;2.30;;;1.87;;
4106;SDS011;21906;50.812;7.132;2023-03-31T04:17:51;3.10;;;1.30;;
4106;SDS011;21906;50.812;7.132;2023-03-31T04:20:19;4.57;;;1.40;;
4106;SDS011;21906;50.812;7.132;2023-03-31T04:22:45;1.50;;;1.20;;
4106;SDS011;21906;50.812;7.132;2023-03-31T04:25:14;1.60;;;1.10;;
4106;SDS011;21906;50.812;7.132;2023-03-31T04:27:48;2.27;;;1.20;;
4106;SDS011;21906;50.812;7.132;2023-03-31T04:30:18;2.83;;;1.20;;
4106;SDS011;21906;50.812;7.132;2023-03-31T04:32:51;3.53;;;1.53;;
4106;SDS011;21906;50.812;7.132;2023-03-31T04:35:19;3.87;;;1.30;;
4106;SDS011;21906;50.812;7.132;2023-03-31T04:37:47;1.37;;;1.10;;
4106;SDS011;21906;50.812;7.132;2023-03-31T04:40:13;2.43;;;1.30;;
4106;SDS011;21906;50.812;7.132;2023-03-31T04:42:39;1.40;;;1.30;;
4106;SDS011;21906;50.812;7.132;2023-03-31T04:45:05;3.40;;;1.50;;
4106;SDS011;21906;50.812;7.132;2023-03-31T04:47:31;1.90;;;1.40;;
4106;SDS011;21906;50.812;7.132;2023-03-31T04:49:57;1.57;;;1.10;;
4106;SDS011;21906;50.812;7.132;2023-03-31T04:52:22;1.40;;;1.20;;
4106;SDS011;21906;50.812;7.132;2023-03-31T04:54:48;1.40;;;1.10;;
4106;SDS011;21906;50.812;7.132;2023-03-31T04:57:13;2.07;;;1.17;;
4106;SDS011;21906;50.812;7.132;2023-03-31T04:59:39;2.00;;;1.27;;
4106;SDS011;21906;50.812;7.132;2023-03-31T05:02:05;1.90;;;1.30;;
4106;SDS011;21906;50.812;7.132;2023-03-31T05:04:31;1.70;;;1.30;;
4106;SDS011;21906;50.812;7.132;2023-03-31T05:06:56;3.27;;;1.30;;
4106;SDS011;21906;50.812;7.132;2023-03-31T05:09:22;2.70;;;1.60;;
4106;SDS011;21906;50.812;7.132;2023-03-31T05:11:47;3.03;;;1.23;;
4106;SDS011;21906;50.812;7.132;2023-03-31T05:14:13;2.07;;;1.27;;
4106;SDS011;21906;50.812;7.132;2023-03-31T05:16:39;2.63;;;1.00;;
4106;SDS011;21906;50.812;7.132;2023-03-31T05:19:06;1.73;;;1.00;;
4106;SDS011;21906;50.812;7.132;2023-03-31T05:21:31;2.33;;;1.47;;
4106;SDS011;21906;50.812;7.132;2023-03-31T05:23:57;2.20;;;1.40;;
4106;SDS011;21906;50.812;7.132;2023-03-31T05:26:23;2.77;;;1.20;;
4106;SDS011;21906;50.812;7.132;2023-03-31T05:28:50;3.50;;;1.80;;
4106;SDS011;21906;50.812;7.132;2023-03-31T05:31:16;2.37;;;1.33;;
4106;SDS011;21906;50.812;7.132;2023-03-31T05:33:42;1.40;;;1.10;;
4106;SDS011;21906;50.812;7.132;2023-03-31T05:36:09;4.40;;;1.10;;
4106;SDS011;21906;50.812;7.132;2023-03-31T05:38:36;2.90;;;1.20;;
4106;SDS011;21906;50.812;7.132;2023-03-31T05:41:02;2.80;;;1.60;;
4106;SDS011;21906;50.812;7.132;2023-03-31T05:43:28;1.50;;;0.93;;
4106;SDS011;21906;50.812;7.132;2023-03-31T05:45:54;1.47;;;1.07;;
4106;SDS011;21906;50.812;7.132;2023-03-31T05:48:20;2.20;;;1.30;;
4106;SDS011;21906;50.812;7.132;2023-03-31T05:50:45;1.40;;;1.10;;
4106;SDS011;21906;50.812;7.132;2023-03-31T05:53:11;3.10;;;1.10;;
4106;SDS011;21906;50.812;7.132;2023-03-31T05:55:37;1.00;;;0.80;;
4106;SDS011;21906;50.812;7.132;2023-03-31T05:58:03;2.00;;;1.00;;
4106;SDS011;21906;50.812;7.132;2023-03-31T06:00:30;1.43;;;0.80;;
4106;SDS011;21906;50.812;7.132;2023-03-31T06:02:56;1.47;;;1.17;;
4106;SDS011;21906;50.812;7.132;2023-03-31T06:05:23;2.30;;;0.80;;
4106;SDS011;21906;50.812;7.132;2023-03-31T06:07:51;0.97;;;0.70;;
4106;SDS011;21906;50.812;7.132;2023-03-31T06:10:17;1.23;;;0.80;;
4106;SDS011;21906;50.812;7.132;2023-03-31T06:12:43;1.10;;;0.80;;
4106;SDS011;21906;50.812;7.132;2023-03-31T06:15:09;1.20;;;0.73;;
4106;SDS011;21906;50.812;7.132;2023-03-31T06:17:35;1.23;;;0.90;;
4106;SDS011;21906;50.812;7.132;2023-03-31T06:20:01;1.10;;;0.80;;
4106;SDS011;21906;50.812;7.132;2023-03-31T06:22:26;3.17;;;0.80;;
4106;SDS011;21906;50.812;7.132;2023-03-31T06:24:52;1.10;;;0.60;;
4106;SDS011;21906;50.812;7.132;2023-03-31T06:27:17;0.80;;;0.70;;
4106;SDS011;21906;50.812;7.132;2023-03-31T06:29:43;1.47;;;0.90;;
4106;SDS011;21906;50.812;7.132;2023-03-31T06:32:09;1.83;;;0.80;;
4106;SDS011;21906;50.812;7.132;2023-03-31T06:34:34;0.90;;;0.70;;
4106;SDS011;21906;50.812;7.132;2023-03-31T06:37:00;1.03;;;0.60;;
4106;SDS011;21906;50.812;7.132;2023-03-31T06:39:25;0.80;;;0.60;;
4106;SDS011;21906;50.812;7.132;2023-03-31T06:41:52;1.50;;;0.60;;
4106;SDS011;21906;50.812;7.132;2023-03-31T06:44:17;1.17;;;0.80;;
4106;SDS011;21906;50.812;7.132;2023-03-31T06:46:47;1.00;;;0.60;;
4106;SDS011;21906;50.812;7.132;2023-03-31T06:49:12;1.00;;;0.80;;
4106;SDS011;21906;50.812;7.132;2023-03-31T06:51:38;0.90;;;0.60;;
4106;SDS011;21906;50.812;7.132;2023-03-31T06:54:04;1.53;;;0.70;;
4106;SDS011;21906;50.812;7.132;2023-03-31T06:56:30;1.00;;;0.70;;
4106;SDS011;21906;50.812;7.132;2023-03-31T06:58:56;1.00;;;0.80;;
4106;SDS011;21906;50.812;7.132;2023-03-31T07:01:21;1.30;;;0.90;;
4106;SDS011;21906;50.812;7.132;2023-03-31T07:03:47;1.67;;;0.90;;
4106;SDS011;21906;50.812;7.132;2023-03-31T07:06:12;1.63;;;0.80;;
4106;SDS011;21906;50.812;7.132;2023-03-31T07:08:38;1.10;;;0.80;;
4106;SDS011;21906;50.812;7.132;2023-03-31T07:11:04;1.53;;;0.90;;
4106;SDS011;21906;50.812;7.132;2023-03-31T07:13:30;1.23;;;1.00;;
4106;SDS011;21906;50.812;7.132;2023-03-31T07:15:55;1.30;;;1.00;;
4106;SDS011;21906;50.812;7.132;2023-03-31T07:18:22;2.47;;;0.90;;
4106;SDS011;21906;50.812;7.132;2023-03-31T07:20:50;4.10;;;1.37;;
4106;SDS011;21906;50.812;7.132;2023-03-31T07:23:16;1.00;;;0.90;;
4106;SDS011;21906;50.812;7.132;2023-03-31T07:25:43;1.10;;;1.00;;
4106;SDS011;21906;50.812;7.132;2023-03-31T07:28:10;1.30;;;1.20;;
4106;SDS011;21906;50.812;7.132;2023-03-31T07:30:36;1.07;;;0.90;;
4106;SDS011;21906;50.812;7.132;2023-03-31T07:33:01;1.63;;;1.00;;
4106;SDS011;21906;50.812;7.132;2023-03-31T07:35:27;2.60;;;1.00;;
4106;SDS011;21906;50.812;7.132;2023-03-31T07:37:53;1.20;;;1.00;;
4106;SDS011;21906;50.812;7.132;2023-03-31T07:40:20;1.83;;;1.00;;
4106;SDS011;21906;50.812;7.132;2023-03-31T07:42:48;1.53;;;0.90;;
4106;SDS011;21906;50.812;7.132;2023-03-31T07:45:16;1.40;;;1.00;;
4106;SDS011;21906;50.812;7.132;2023-03-31T07:47:42;1.40;;;1.10;;
4106;SDS011;21906;50.812;7.132;2023-03-31T07:50:10;1.83;;;1.00;;
4106;SDS011;21906;50.812;7.132;2023-03-31T07:52:37;1.20;;;1.00;;
4106;SDS011;21906;50.812;7.132;2023-03-31T07:55:03;1.40;;;1.00;;
4106;SDS011;21906;50.812;7.132;2023-03-31T07:57:29;1.00;;;0.80;;
4106;SDS011;21906;50.812;7.132;2023-03-31T07:59:55;1.60;;;0.90;;
4106;SDS011;21906;50.812;7.132;2023-03-31T08:02:21;1.67;;;1.00;;
4106;SDS011;21906;50.812;7.132;2023-03-31T08:04:46;1.20;;;0.93;;
4106;SDS011;21906;50.812;7.132;2023-03-31T08:07:13;1.07;;;0.90;;
4106;SDS011;21906;50.812;7.132;2023-03-31T08:09:41;2.23;;;1.03;;
4106;SDS011;21906;50.812;7.132;2023-03-31T08:12:08;3.97;;;0.80;;
4106;SDS011;21906;50.812;7.132;2023-03-31T08:14:34;1.10;;;1.00;;
4106;SDS011;21906;50.812;7.132;2023-03-31T08:17:00;2.03;;;0.90;;
4106;SDS011;21906;50.812;7.132;2023-03-31T08:19:26;1.40;;;1.10;;
4106;SDS011;21906;50.812;7.132;2023-03-31T08:21:52;2.53;;;1.00;;
4106;SDS011;21906;50.812;7.132;2023-03-31T08:24:18;1.73;;;1.00;;
4106;SDS011;21906;50.812;7.132;2023-03-31T08:26:43;1.87;;;1.27;;
4106;SDS011;21906;50.812;7.132;2023-03-31T08:29:09;2.33;;;1.07;;
4106;SDS011;21906;50.812;7.132;2023-03-31T08:31:35;1.40;;;1.10;;
4106;SDS011;21906;50.812;7.132;2023-03-31T08:34:01;1.30;;;1.07;;
4106;SDS011;21906;50.812;7.132;2023-03-31T08:36:27;2.57;;;1.30;;
4106;SDS011;21906;50.812;7.132;2023-03-31T08:38:53;3.83;;;1.10;;
4106;SDS011;21906;50.812;7.132;2023-03-31T08:47:00;2.70;;;1.20;;
4106;SDS011;21906;50.812;7.132;2023-03-31T08:49:31;2.87;;;1.40;;
4106;SDS011;21906;50.812;7.132;2023-03-31T08:52:04;4.70;;;2.00;;
4106;SDS011;21906;50.812;7.132;2023-03-31T08:54:40;2.63;;;1.70;;
4106;SDS011;21906;50.812;7.132;2023-03-31T08:57:13;3.67;;;1.50;;
4106;SDS011;21906;50.812;7.132;2023-03-31T08:59:44;3.23;;;1.33;;
4106;SDS011;21906;50.812;7.132;2023-03-31T09:02:27;2.40;;;1.43;;
4106;SDS011;21906;50.812;7.132;2023-03-31T09:10:55;3.37;;;1.53;;
4106;SDS011;21906;50.812;7.132;2023-03-31T09:18:51;6.30;;;1.80;;
4106;SDS011;21906;50.812;7.132;2023-03-31T09:21:40;4.17;;;2.00;;
4106;SDS011;21906;50.812;7.132;2023-03-31T09:24:19;3.37;;;2.07;;
4106;SDS011;21906;50.812;7.132;2023-03-31T09:27:00;7.37;;;2.17;;
4106;SDS011;21906;50.812;7.132;2023-03-31T09:32:13;3.50;;;2.17;;
4106;SDS011;21906;50.812;7.132;2023-03-31T09:34:46;3.00;;;1.60;;
4106;SDS011;21906;50.812;7.132;2023-03-31T09:37:16;4.10;;;1.70;;
4106;SDS011;21906;50.812;7.132;2023-03-31T09:39:42;4.00;;;1.50;;
4106;SDS011;21906;50.812;7.132;2023-03-31T09:42:12;4.07;;;1.90;;
4106;SDS011;21906;50.812;7.132;2023-03-31T09:44:39;4.57;;;1.57;;
4106;SDS011;21906;50.812;7.132;2023-03-31T09:47:31;3.57;;;1.80;;
4106;SDS011;21906;50.812;7.132;2023-03-31T09:50:05;2.90;;;1.60;;
4106;SDS011;21906;50.812;7.132;2023-03-31T09:52:32;3.40;;;1.70;;
4106;SDS011;21906;50.812;7.132;2023-03-31T09:55:03;4.50;;;1.80;;
4106;SDS011;21906;50.812;7.132;2023-03-31T09:57:40;3.57;;;1.63;;
4106;SDS011;21906;50.812;7.132;2023-03-31T10:05:35;5.90;;;1.97;;
4106;SDS011;21906;50.812;7.132;2023-03-31T10:10:36;3.90;;;2.30;;
4106;SDS011;21906;50.812;7.132;2023-03-31T10:13:06;5.93;;;2.20;;
4106;SDS011;21906;50.812;7.132;2023-03-31T10:15:37;4.97;;;1.90;;
4106;SDS011;21906;50.812;7.132;2023-03-31T10:18:04;4.10;;;1.80;;
4106;SDS011;21906;50.812;7.132;2023-03-31T10:20:31;5.73;;;1.83;;
4106;SDS011;21906;50.812;7.132;2023-03-31T10:23:04;4.57;;;2.00;;
4106;SDS011;21906;50.812;7.132;2023-03-31T10:25:40;2.23;;;1.47;;
4106;SDS011;21906;50.812;7.132;2023-03-31T10:28:09;3.40;;;1.77;;
4106;SDS011;21906;50.812;7.132;2023-03-31T10:30:36;2.80;;;1.67;;
4106;SDS011;21906;50.812;7.132;2023-03-31T10:33:05;3.10;;;1.60;;
4106;SDS011;21906;50.812;7.132;2023-03-31T10:35:37;2.53;;;1.50;;
4106;SDS011;21906;50.812;7.132;2023-03-31T10:38:05;5.00;;;1.67;;
4106;SDS011;21906;50.812;7.132;2023-03-31T10:40:35;2.40;;;1.77;;
4106;SDS011;21906;50.812;7.132;2023-03-31T10:43:14;2.87;;;1.60;;
4106;SDS011;21906;50.812;7.132;2023-03-31T10:45:56;1.90;;;1.30;;
4106;SDS011;21906;50.812;7.132;2023-03-31T10:48:27;2.87;;;1.60;;
4106;SDS011;21906;50.812;7.132;2023-03-31T10:50:58;2.53;;;1.30;;
4106;SDS011;21906;50.812;7.132;2023-03-31T10:53:51;2.53;;;1.27;;
4106;SDS011;21906;50.812;7.132;2023-03-31T11:03:01;2.57;;;1.53;;
4106;SDS011;21906;50.812;7.132;2023-03-31T11:10:20;2.97;;;1.23;;
4106;SDS011;21906;50.812;7.132;2023-03-31T11:13:04;3.73;;;1.60;;
4106;SDS011;21906;50.812;7.132;2023-03-31T11:16:19;2.27;;;1.27;;
4106;SDS011;21906;50.812;7.132;2023-03-31T11:21:53;3.43;;;1.30;;
4106;SDS011;21906;50.812;7.132;2023-03-31T11:32:33;2.00;;;1.03;;
4106;SDS011;21906;50.812;7.132;2023-03-31T11:43:19;1.30;;;0.90;;
4106;SDS011;21906;50.812;7.132;2023-03-31T11:54:03;2.40;;;1.07;;
4106;SDS011;21906;50.812;7.132;2023-03-31T11:56:36;1.43;;;1.10;;
4106;SDS011;21906;50.812;7.132;2023-03-31T11:59:04;2.60;;;1.13;;
4106;SDS011;21906;50.812;7.132;2023-03-31T12:01:41;2.20;;;1.20;;
4106;SDS011;21906;50.812;7.132;2023-03-31T12:04:34;1.90;;;1.20;;
4106;SDS011;21906;50.812;7.132;2023-03-31T12:07:49;3.83;;;1.27;;
4106;SDS011;21906;50.812;7.132;2023-03-31T12:10:19;2.07;;;1.37;;
4106;SDS011;21906;50.812;7.132;2023-03-31T12:12:58;3.83;;;1.30;;
4106;SDS011;21906;50.812;7.132;2023-03-31T12:15:39;4.40;;;1.60;;
4106;SDS011;21906;50.812;7.132;2023-03-31T12:18:12;5.10;;;1.83;;
4106;SDS011;21906;50.812;7.132;2023-03-31T12:20:44;3.53;;;1.63;;
4106;SDS011;21906;50.812;7.132;2023-03-31T12:23:19;2.03;;;1.30;;
4106;SDS011;21906;50.812;7.132;2023-03-31T12:25:51;2.20;;;1.17;;
4106;SDS011;21906;50.812;7.132;2023-03-31T12:28:20;2.03;;;0.93;;
4106;SDS011;21906;50.812;7.132;2023-03-31T12:30:47;1.30;;;1.10;;
4106;SDS011;21906;50.812;7.132;2023-03-31T12:38:59;1.50;;;1.17;;
4106;SDS011;21906;50.812;7.132;2023-03-31T12:52:26;1.70;;;1.10;;
4106;SDS011;21906;50.812;7.132;2023-03-31T12:55:15;4.03;;;1.20;;
4106;SDS011;21906;50.812;7.132;2023-03-31T13:03:55;2.30;;;1.33;;
4106;SDS011;21906;50.812;7.132;2023-03-31T13:11:53;1.83;;;1.30;;
4106;SDS011;21906;50.812;7.132;2023-03-31T13:14:20;3.77;;;1.20;;
4106;SDS011;21906;50.812;7.132;2023-03-31T13:17:09;2.70;;;1.40;;
4106;SDS011;21906;50.812;7.132;2023-03-31T13:20:23;3.80;;;1.30;;
4106;SDS011;21906;50.812;7.132;2023-03-31T13:23:02;4.87;;;1.50;;
4106;SDS011;21906;50.812;7.132;2023-03-31T13:25:48;5.83;;;2.20;;
4106;SDS011;21906;50.812;7.132;2023-03-31T13:30:59;3.13;;;1.90;;
4106;SDS011;21906;50.812;7.132;2023-03-31T13:33:36;3.90;;;1.67;;
4106;SDS011;21906;50.812;7.132;2023-03-31T13:41:28;4.07;;;1.47;;
4106;SDS011;21906;50.812;7.132;2023-03-31T13:50:16;3.33;;;1.37;;
4106;SDS011;21906;50.812;7.132;2023-03-31T13:58:16;3.27;;;1.53;;
4106;SDS011;21906;50.812;7.132;2023-03-31T14:08:54;2.40;;;1.47;;
4106;SDS011;21906;50.812;7.132;2023-03-31T14:11:29;5.10;;;1.30;;
4106;SDS011;21906;50.812;7.132;2023-03-31T14:16:35;1.43;;;1.20;;
4106;SDS011;21906;50.812;7.132;2023-03-31T14:19:07;2.20;;;1.10;;
4106;SDS011;21906;50.812;7.132;2023-03-31T14:21:45;1.97;;;1.20;;
4106;SDS011;21906;50.812;7.132;2023-03-31T14:24:23;1.93;;;1.10;;
4106;SDS011;21906;50.812;7.132;2023-03-31T14:30:10;3.70;;;1.00;;
4106;SDS011;21906;50.812;7.132;2023-03-31T14:36:00;4.13;;;1.30;;
4106;SDS011;21906;50.812;7.132;2023-03-31T14:38:39;3.10;;;1.30;;
4106;SDS011;21906;50.812;7.132;2023-03-31T14:41:05;1.80;;;1.40;;
4106;SDS011;21906;50.812;7.132;2023-03-31T14:43:32;2.60;;;1.27;;
4106;SDS011;21906;50.812;7.132;2023-03-31T14:46:01;3.17;;;1.20;;
4106;SDS011;21906;50.812;7.132;2023-03-31T14:48:29;2.23;;;1.40;;
4106;SDS011;21906;50.812;7.132;2023-03-31T14:51:22;2.43;;;1.20;;
4106;SDS011;21906;50.812;7.132;2023-03-31T14:56:44;3.17;;;1.20;;
4106;SDS011;21906;50.812;7.132;2023-03-31T14:59:12;1.73;;;0.90;;
4106;SDS011;21906;50.812;7.132;2023-03-31T15:01:45;2.03;;;1.00;;
4106;SDS011;21906;50.812;7.132;2023-03-31T15:04:12;2.57;;;1.07;;
4106;SDS011;21906;50.812;7.132;2023-03-31T15:06:42;2.00;;;1.30;;
4106;SDS011;21906;50.812;7.132;2023-03-31T15:09:12;2.37;;;1.10;;
4106;SDS011;21906;50.812;7.132;2023-03-31T15:11:43;2.37;;;1.00;;
4106;SDS011;21906;50.812;7.132;2023-03-31T15:14:11;2.30;;;1.20;;
4106;SDS011;21906;50.812;7.132;2023-03-31T15:16:40;1.90;;;1.00;;
4106;SDS011;21906;50.812;7.132;2023-03-31T15:19:17;2.60;;;1.37;;
4106;SDS011;21906;50.812;7.132;2023-03-31T15:22:01;2.07;;;1.30;;
4106;SDS011;21906;50.812;7.132;2023-03-31T15:24:35;2.40;;;1.20;;
4106;SDS011;21906;50.812;7.132;2023-03-31T15:27:02;2.80;;;1.50;;
4106;SDS011;21906;50.812;7.132;2023-03-31T15:32:13;3.00;;;1.43;;
4106;SDS011;21906;50.812;7.132;2023-03-31T15:34:49;2.80;;;1.30;;
4106;SDS011;21906;50.812;7.132;2023-03-31T15:37:16;3.80;;;1.27;;
4106;SDS011;21906;50.812;7.132;2023-03-31T15:39:57;3.30;;;1.17;;
4106;SDS011;21906;50.812;7.132;2023-03-31T15:42:25;2.53;;;1.60;;
4106;SDS011;21906;50.812;7.132;2023-03-31T15:44:56;2.30;;;1.23;;
4106;SDS011;21906;50.812;7.132;2023-03-31T15:47:51;4.23;;;1.40;;
4106;SDS011;21906;50.812;7.132;2023-03-31T15:50:19;1.83;;;1.27;;
4106;SDS011;21906;50.812;7.132;2023-03-31T15:52:47;1.80;;;1.07;;
4106;SDS011;21906;50.812;7.132;2023-03-31T15:55:59;2.87;;;1.40;;
4106;SDS011;21906;50.812;7.132;2023-03-31T15:58:08;1.83;;;1.20;;
4106;SDS011;21906;50.812;7.132;2023-03-31T16:00:40;4.73;;;1.17;;
4106;SDS011;21906;50.812;7.132;2023-03-31T16:03:34;2.43;;;1.37;;
4106;SDS011;21906;50.812;7.132;2023-03-31T16:06:26;2.70;;;1.20;;
4106;SDS011;21906;50.812;7.132;2023-03-31T16:08:57;2.90;;;1.20;;
4106;SDS011;21906;50.812;7.132;2023-03-31T16:11:40;1.40;;;0.90;;
4106;SDS011;21906;50.812;7.132;2023-03-31T16:14:21;1.60;;;1.10;;
4106;SDS011;21906;50.812;7.132;2023-03-31T16:16:56;1.87;;;0.83;;
4106;SDS011;21906;50.812;7.132;2023-03-31T16:19:29;1.20;;;1.10;;
4106;SDS011;21906;50.812;7.132;2023-03-31T16:22:02;1.60;;;0.97;;
4106;SDS011;21906;50.812;7.132;2023-03-31T16:24:32;1.90;;;1.10;;
4106;SDS011;21906;50.812;7.132;2023-03-31T16:27:00;3.67;;;1.10;;
4106;SDS011;21906;50.812;7.132;2023-03-31T16:29:30;2.50;;;1.03;;
4106;SDS011;21906;50.812;7.132;2023-03-31T16:32:12;1.73;;;1.00;;
4106;SDS011;21906;50.812;7.132;2023-03-31T16:34:51;1.70;;;1.20;;
4106;SDS011;21906;50.812;7.132;2023-03-31T16:37:17;1.20;;;0.80;;
4106;SDS011;21906;50.812;7.132;2023-03-31T16:39:43;3.00;;;0.97;;
4106;SDS011;21906;50.812;7.132;2023-03-31T16:42:08;2.83;;;1.20;;
4106;SDS011;21906;50.812;7.132;2023-03-31T16:44:34;1.80;;;1.10;;
4106;SDS011;21906;50.812;7.132;2023-03-31T16:47:00;2.50;;;1.00;;
4106;SDS011;21906;50.812;7.132;2023-03-31T16:49:25;1.67;;;1.00;;
4106;SDS011;21906;50.812;7.132;2023-03-31T16:51:51;1.60;;;1.10;;
4106;SDS011;21906;50.812;7.132;2023-03-31T16:54:16;2.53;;;1.10;;
4106;SDS011;21906;50.812;7.132;2023-03-31T16:56:42;1.20;;;0.90;;
4106;SDS011;21906;50.812;7.132;2023-03-31T16:59:08;1.77;;;1.00;;
4106;SDS011;21906;50.812;7.132;2023-03-31T17:01:34;2.00;;;0.70;;
4106;SDS011;21906;50.812;7.132;2023-03-31T17:04:00;2.90;;;1.30;;
4106;SDS011;21906;50.812;7.132;2023-03-31T17:06:26;1.27;;;1.10;;
4106;SDS011;21906;50.812;7.132;2023-03-31T17:08:52;1.90;;;1.10;;
4106;SDS011;21906;50.812;7.132;2023-03-31T17:11:17;1.50;;;0.90;;
4106;SDS011;21906;50.812;7.132;2023-03-31T17:13:43;1.50;;;0.90;;
4106;SDS011;21906;50.812;7.132;2023-03-31T17:16:10;1.60;;;1.00;;
4106;SDS011;21906;50.812;7.132;2023-03-31T17:18:36;2.60;;;0.80;;
4106;SDS011;21906;50.812;7.132;2023-03-31T17:21:09;2.10;;;0.80;;
4106;SDS011;21906;50.812;7.132;2023-03-31T17:23:37;3.00;;;1.40;;
4106;SDS011;21906;50.812;7.132;2023-03-31T17:26:04;3.37;;;1.07;;
4106;SDS011;21906;50.812;7.132;2023-03-31T17:28:32;1.73;;;1.43;;
4106;SDS011;21906;50.812;7.132;2023-03-31T17:30:58;1.73;;;1.20;;
4106;SDS011;21906;50.812;7.132;2023-03-31T17:33:24;2.37;;;1.10;;
4106;SDS011;21906;50.812;7.132;2023-03-31T17:35:53;1.20;;;1.00;;
4106;SDS011;21906;50.812;7.132;2023-03-31T17:38:20;2.03;;;1.10;;
4106;SDS011;21906;50.812;7.132;2023-03-31T17:40:46;3.13;;;1.00;;
4106;SDS011;21906;50.812;7.132;2023-03-31T17:43:12;2.00;;;1.17;;
4106;SDS011;21906;50.812;7.132;2023-03-31T17:45:38;1.40;;;0.83;;
4106;SDS011;21906;50.812;7.132;2023-03-31T17:48:04;3.80;;;1.10;;
4106;SDS011;21906;50.812;7.132;2023-03-31T17:50:30;1.83;;;1.00;;
4106;SDS011;21906;50.812;7.132;2023-03-31T17:52:57;1.60;;;1.10;;
4106;SDS011;21906;50.812;7.132;2023-03-31T17:55:23;1.50;;;1.03;;
4106;SDS011;21906;50.812;7.132;2023-03-31T17:57:48;1.20;;;1.00;;
4106;SDS011;21906;50.812;7.132;2023-03-31T18:00:14;3.50;;;1.20;;
4106;SDS011;21906;50.812;7.132;2023-03-31T18:02:41;1.63;;;1.13;;
4106;SDS011;21906;50.812;7.132;2023-03-31T18:05:08;2.90;;;1.10;;
4106;SDS011;21906;50.812;7.132;2023-03-31T18:07:34;3.17;;;1.00;;
4106;SDS011;21906;50.812;7.132;2023-03-31T18:10:01;4.63;;;1.57;;
4106;SDS011;21906;50.812;7.132;2023-03-31T18:12:29;1.80;;;1.00;;
4106;SDS011;21906;50.812;7.132;2023-03-31T18:14:55;2.00;;;1.20;;
4106;SDS011;21906;50.812;7.132;2023-03-31T18:17:21;2.80;;;1.30;;